createdAt,value
2023-03-14T00:01:32.193Z,98029.38
2023-03-14T00:04:01.401Z,98019.22
2023-03-14T00:06:29.297Z,98003.63
2023-03-14T00:08:57.204Z,97993.31
2023-03-14T00:11:25.006Z,97977.13
2023-03-14T00:13:53.903Z,97977.84
2023-03-14T00:16:22.372Z,97959.78
2023-03-14T00:18:50.246Z,97970.88
2023-03-14T00:21:19.952Z,97984.00
2023-03-14T00:23:48.009Z,97985.69
2023-03-14T00:26:18.168Z,97989.38
2023-03-14T00:28:46.517Z,97989.38
2023-03-14T00:31:16.737Z,97987.72
2023-03-14T00:33:46.469Z,97969.63
2023-03-14T00:36:17.448Z,97935.03
2023-03-14T00:38:51.344Z,97929.03
2023-03-14T00:41:23.171Z,97918.59
2023-03-14T00:43:52.272Z,97895.19
2023-03-14T00:46:21.849Z,97894.66
2023-03-14T00:48:49.712Z,97892.06
2023-03-14T00:51:35.928Z,97910.22
2023-03-14T00:54:05.300Z,97920.00
2023-03-14T00:56:33.138Z,97935.81
2023-03-14T00:59:01.071Z,97934.94
2023-03-14T01:01:29.025Z,97939.41
2023-03-14T01:03:57.533Z,97935.94
2023-03-14T01:06:27.958Z,97932.59
2023-03-14T01:08:57.909Z,97936.00
2023-03-14T01:11:32.350Z,97938.84
2023-03-14T01:14:01.069Z,97931.00
2023-03-14T01:16:33.128Z,97913.41
2023-03-14T01:19:02.973Z,97900.28
2023-03-14T01:21:34.551Z,97899.31
2023-03-14T01:24:06.409Z,97909.56
2023-03-14T01:26:36.680Z,97904.50
2023-03-14T01:29:07.007Z,97912.63
2023-03-14T01:31:37.617Z,97925.81
2023-03-14T01:34:05.846Z,97928.16
2023-03-14T01:36:34.056Z,97923.84
2023-03-14T01:39:03.967Z,97929.75
2023-03-14T01:41:32.511Z,97929.72
2023-03-14T01:44:02.781Z,97921.19
2023-03-14T01:46:39.908Z,97930.66
2023-03-14T01:49:21.358Z,97940.44
2023-03-14T01:52:01.549Z,97931.06
2023-03-14T01:54:36.975Z,97928.91
2023-03-14T01:57:11.920Z,97933.59
2023-03-14T01:59:46.890Z,97926.28
2023-03-14T02:02:16.601Z,97925.72
2023-03-14T02:04:45.418Z,97928.53
2023-03-14T02:07:23.356Z,97922.69
2023-03-14T02:10:19.532Z,97922.75
2023-03-14T02:12:50.340Z,97913.44
2023-03-14T02:15:35.082Z,97924.59
2023-03-14T02:18:32.003Z,97925.44
2023-03-14T02:21:16.745Z,97924.75
2023-03-14T02:23:56.666Z,97926.47
2023-03-14T02:26:37.708Z,97922.91
2023-03-14T02:29:14.312Z,97930.63
2023-03-14T02:31:43.054Z,97929.50
2023-03-14T02:34:11.671Z,97926.97
2023-03-14T02:36:39.674Z,97930.53
2023-03-14T02:39:16.726Z,97937.41
2023-03-14T02:41:49.973Z,97933.97
2023-03-14T02:44:20.984Z,97938.44
2023-03-14T02:46:50.611Z,97935.84
2023-03-14T02:49:19.190Z,97944.66
2023-03-14T02:51:49.560Z,97931.00
2023-03-14T02:54:20.653Z,97930.03
2023-03-14T02:56:49.222Z,97928.25
2023-03-14T02:59:17.047Z,97914.53
2023-03-14T03:01:53.727Z,97925.91
2023-03-14T03:04:22.583Z,97924.41
2023-03-14T03:06:50.629Z,97933.22
2023-03-14T03:09:18.539Z,97935.75
2023-03-14T03:11:46.649Z,97939.25
2023-03-14T03:14:20.570Z,97934.06
2023-03-14T03:16:49.714Z,97951.50
2023-03-14T03:19:19.427Z,97937.56
2023-03-14T03:21:49.381Z,97936.72
2023-03-14T03:24:18.643Z,97934.97
2023-03-14T03:26:46.605Z,97939.03
2023-03-14T03:29:14.889Z,97929.59
2023-03-14T03:31:43.349Z,97931.25
2023-03-14T03:34:11.837Z,97932.97
2023-03-14T03:36:42.220Z,97920.81
2023-03-14T03:39:10.367Z,97919.06
2023-03-14T03:41:38.481Z,97905.34
2023-03-14T03:44:07.025Z,97917.56
2023-03-14T03:46:35.649Z,97909.00
2023-03-14T03:49:03.477Z,97912.50
2023-03-14T03:51:31.601Z,97925.28
2023-03-14T03:54:01.278Z,97903.69
2023-03-14T03:56:35.953Z,97915.03
2023-03-14T03:59:03.963Z,97898.41
2023-03-14T04:01:31.771Z,97907.84
2023-03-14T04:04:01.335Z,97908.66
2023-03-14T04:06:29.607Z,97907.09
2023-03-14T04:09:01.682Z,97920.94
2023-03-14T04:11:44.004Z,97920.78
2023-03-14T04:14:21.082Z,97924.19
2023-03-14T04:16:51.408Z,97919.00
2023-03-14T04:19:22.028Z,97906.84
2023-03-14T04:21:51.560Z,97912.81
2023-03-14T04:24:22.337Z,97913.63
2023-03-14T04:26:52.732Z,97911.84
2023-03-14T04:29:22.350Z,97910.16
2023-03-14T04:31:50.290Z,97910.94
2023-03-14T04:34:19.611Z,97913.53
2023-03-14T04:36:54.028Z,97901.41
2023-03-14T04:39:31.105Z,97892.75
2023-03-14T04:42:08.466Z,97887.63
2023-03-14T04:44:38.685Z,97873.59
2023-03-14T04:47:07.620Z,97881.53
2023-03-14T04:49:36.865Z,97875.97
2023-03-14T04:52:05.094Z,97867.34
2023-03-14T04:54:36.421Z,97864.03
2023-03-14T04:57:04.557Z,97856.53
2023-03-14T04:59:35.099Z,97868.75
2023-03-14T05:02:32.114Z,97865.19
2023-03-14T05:05:10.069Z,97863.38
2023-03-14T05:07:46.962Z,97866.97
2023-03-14T05:10:39.125Z,97866.88
2023-03-14T05:13:19.059Z,97859.75
2023-03-14T05:16:10.039Z,97846.81
2023-03-14T05:19:16.407Z,97834.03
2023-03-14T05:22:02.160Z,97834.22
2023-03-14T05:24:32.854Z,97831.81
2023-03-14T05:27:05.744Z,97843.03
2023-03-14T05:29:55.084Z,97844.00
2023-03-14T05:32:37.666Z,97830.41
2023-03-14T05:35:38.021Z,97830.47
2023-03-14T05:38:15.368Z,97836.59
2023-03-14T05:40:58.845Z,97827.03
2023-03-14T05:43:46.798Z,97843.34
2023-03-14T05:46:34.962Z,97853.91
2023-03-14T05:49:21.743Z,97854.47
2023-03-14T05:51:56.285Z,97853.56
2023-03-14T05:54:44.325Z,97850.00
2023-03-14T05:57:43.705Z,97848.13
2023-03-14T06:00:24.208Z,97841.41
2023-03-14T06:03:09.116Z,97839.66
2023-03-14T06:05:43.378Z,97841.28
2023-03-14T06:08:11.990Z,97838.63
2023-03-14T06:10:40.822Z,97832.41
2023-03-14T06:13:08.721Z,97839.22
2023-03-14T06:15:38.290Z,97834.03
2023-03-14T06:18:06.379Z,97837.69
2023-03-14T06:20:40.050Z,97844.69
2023-03-14T06:23:10.758Z,97835.53
2023-03-14T06:25:38.994Z,97852.72
2023-03-14T06:28:06.870Z,97862.00
2023-03-14T06:30:35.093Z,97860.97
2023-03-14T06:33:05.650Z,97849.91
2023-03-14T06:35:33.729Z,97851.88
2023-03-14T06:38:02.014Z,97852.19
2023-03-14T06:40:30.694Z,97861.94
2023-03-14T06:43:04.628Z,97871.50
2023-03-14T06:45:34.105Z,97869.88
2023-03-14T06:48:08.993Z,97869.09
2023-03-14T06:50:42.769Z,97862.97
2023-03-14T06:53:10.763Z,97863.13
2023-03-14T06:55:42.379Z,97863.75
2023-03-14T07:01:22.142Z,97862.91
2023-03-14T07:03:52.227Z,97867.06
2023-03-14T07:06:21.134Z,97868.03
2023-03-14T07:08:49.543Z,97864.47
2023-03-14T07:11:18.870Z,97878.31
2023-03-14T07:13:47.473Z,97883.50
2023-03-14T07:16:16.315Z,97883.50
2023-03-14T07:18:44.323Z,97883.28
2023-03-14T07:21:13.731Z,97896.16
2023-03-14T07:23:42.123Z,97902.06
2023-03-14T07:26:10.830Z,97897.13
2023-03-14T07:28:44.086Z,97891.94
2023-03-14T07:31:16.854Z,97899.56
2023-03-14T07:33:44.891Z,97893.38
2023-03-14T07:36:14.757Z,97890.63
2023-03-14T07:38:46.538Z,97886.47
2023-03-14T07:41:29.889Z,97879.53
2023-03-14T07:44:18.738Z,97873.97
2023-03-14T07:46:46.873Z,97879.78
2023-03-14T07:49:14.721Z,97876.25
2023-03-14T07:51:45.030Z,97876.84
2023-03-14T07:54:13.071Z,97878.41
2023-03-14T07:56:40.945Z,97881.50
2023-03-14T07:59:08.967Z,97883.03
2023-03-14T08:01:36.790Z,97880.78
2023-03-14T08:04:05.370Z,97887.53
2023-03-14T08:06:33.314Z,97884.75
2023-03-14T08:09:02.615Z,97889.97
2023-03-14T08:11:30.473Z,97885.63
2023-03-14T08:13:58.479Z,97889.28
2023-03-14T08:16:27.050Z,97878.69
2023-03-14T08:19:15.239Z,97887.53
2023-03-14T08:22:16.012Z,97885.53
2023-03-14T08:24:47.150Z,97888.63
2023-03-14T08:27:15.951Z,97889.47
2023-03-14T08:29:44.595Z,97886.06
2023-03-14T08:32:13.237Z,97881.13
2023-03-14T08:34:41.191Z,97887.69
2023-03-14T08:37:23.475Z,97882.59
2023-03-14T08:39:55.423Z,97888.47
2023-03-14T08:42:23.251Z,97882.38
2023-03-14T08:45:14.190Z,97890.38
2023-03-14T08:48:00.545Z,97889.00
2023-03-14T08:50:47.380Z,97894.56
2023-03-14T08:53:34.520Z,97901.50
2023-03-14T08:56:06.833Z,97900.06
2023-03-14T08:58:34.939Z,97900.25
2023-03-14T09:01:02.872Z,97895.31
2023-03-14T09:03:30.881Z,97909.88
2023-03-14T09:06:04.641Z,97903.63
2023-03-14T09:08:32.631Z,97909.97
2023-03-14T09:11:01.036Z,97911.56
2023-03-14T09:13:30.317Z,97912.94
2023-03-14T09:15:58.488Z,97918.25
2023-03-14T09:18:26.284Z,97922.66
2023-03-14T09:20:54.146Z,97941.78
2023-03-14T09:23:21.936Z,98006.88
2023-03-14T09:25:49.820Z,98015.47
2023-03-14T09:28:18.557Z,98029.94
2023-03-14T09:30:48.498Z,98032.06
2023-03-14T09:33:16.556Z,98038.13
2023-03-14T09:35:44.791Z,98052.94
2023-03-14T09:38:13.084Z,98055.78
2023-03-14T09:40:42.291Z,98075.78
2023-03-14T09:43:14.943Z,98083.44
2023-03-14T09:45:47.039Z,98080.06
2023-03-14T09:48:22.743Z,98093.16
2023-03-14T09:50:54.029Z,98105.31
2023-03-14T09:53:28.601Z,98101.88
2023-03-14T09:55:59.096Z,98113.00
2023-03-14T09:58:27.384Z,98132.81
2023-03-14T10:00:59.106Z,98150.16
2023-03-14T10:03:34.884Z,98169.91
2023-03-14T10:06:05.349Z,98192.28
2023-03-14T10:08:33.219Z,98181.13
2023-03-14T10:11:00.944Z,98206.97
2023-03-14T10:13:30.503Z,98222.44
2023-03-14T10:16:02.476Z,98236.19
2023-03-14T10:18:35.745Z,98214.66
2023-03-14T10:21:08.239Z,98232.53
2023-03-14T10:23:39.991Z,98280.34
2023-03-14T10:26:15.234Z,98302.59
2023-03-14T10:28:51.873Z,98327.41
2023-03-14T10:31:26.737Z,98311.94
2023-03-14T10:34:05.770Z,98364.91
2023-03-14T10:36:35.978Z,98379.31
2023-03-14T10:39:31.732Z,98392.25
2023-03-14T10:42:12.056Z,98408.53
2023-03-14T10:44:43.620Z,98412.66
2023-03-14T10:47:38.907Z,98440.13
2023-03-14T10:50:28.363Z,98434.97
2023-03-14T10:53:05.532Z,98450.22
2023-03-14T10:55:46.179Z,98472.59
2023-03-14T10:58:27.002Z,98476.84
2023-03-14T11:01:15.308Z,98482.91
2023-03-14T11:03:58.488Z,98495.84
2023-03-14T11:06:53.994Z,98502.72
2023-03-14T11:09:34.091Z,98522.63
2023-03-14T11:12:26.633Z,98500.34
2023-03-14T11:15:06.514Z,98531.38
2023-03-14T11:17:48.144Z,98540.78
2023-03-14T11:20:37.668Z,98558.63
2023-03-14T11:23:15.341Z,98576.78
2023-03-14T11:25:57.480Z,98546.78
2023-03-14T11:28:47.658Z,98587.84
2023-03-14T11:31:26.734Z,98593.97
2023-03-14T11:34:03.224Z,98602.53
2023-03-14T11:36:42.135Z,98603.34
2023-03-14T11:39:19.186Z,98620.53
2023-03-14T11:41:54.211Z,98626.81
2023-03-14T11:44:39.111Z,98635.59
2023-03-14T11:47:15.759Z,98641.88
2023-03-14T11:49:53.514Z,98645.56
2023-03-14T11:52:44.355Z,98647.19
2023-03-14T11:55:23.415Z,98648.22
2023-03-14T11:57:54.640Z,98668.16
2023-03-14T12:00:41.246Z,98672.00
2023-03-14T12:03:24.562Z,98680.66
2023-03-14T12:06:24.718Z,98663.31
2023-03-14T12:09:00.094Z,98710.63
2023-03-14T12:11:46.158Z,98724.16
2023-03-14T12:14:25.447Z,98738.09
2023-03-14T12:16:59.851Z,98733.56
2023-03-14T12:19:34.089Z,98734.56
2023-03-14T12:22:21.035Z,98749.25
2023-03-14T12:24:59.197Z,98761.53
2023-03-14T12:28:07.414Z,98783.09
2023-03-14T12:30:50.503Z,98774.91
2023-03-14T12:33:39.851Z,98778.69
2023-03-14T12:36:55.865Z,98783.84
2023-03-14T12:39:55.420Z,98775.78
2023-03-14T12:42:46.297Z,98808.59
2023-03-14T12:45:37.874Z,98814.63
2023-03-14T12:48:44.353Z,98820.63
2023-03-14T12:51:25.708Z,98830.25
2023-03-14T12:57:31.345Z,98845.69
2023-03-14T13:00:05.768Z,98855.53
2023-03-14T13:02:45.783Z,98856.66
2023-03-14T13:05:20.924Z,98865.38
2023-03-14T13:08:11.006Z,98869.91
2023-03-14T13:10:50.237Z,98867.38
2023-03-14T13:13:24.369Z,98883.28
2023-03-14T13:16:16.638Z,98883.25
2023-03-14T13:19:00.762Z,98898.63
2023-03-14T13:21:37.591Z,98916.50
2023-03-14T13:24:25.506Z,98919.91
2023-03-14T13:26:57.784Z,98933.66
2023-03-14T13:29:34.839Z,98930.25
2023-03-14T13:32:24.415Z,98942.56
2023-03-14T13:38:35.311Z,98953.16
2023-03-14T13:41:42.616Z,98957.28
2023-03-14T13:48:20.251Z,98978.75
2023-03-14T13:54:31.608Z,99002.03
2023-03-14T13:57:20.337Z,98991.19
2023-03-14T14:00:06.536Z,98998.31
2023-03-14T14:03:39.637Z,99024.22
2023-03-14T14:07:01.338Z,99021.06
2023-03-14T14:09:49.254Z,99026.22
2023-03-14T14:12:52.023Z,99038.28
2023-03-14T14:15:49.126Z,99043.53
2023-03-14T14:18:31.012Z,99046.84
2023-03-14T14:21:01.411Z,99046.88
2023-03-14T14:23:59.432Z,99060.00
2023-03-14T14:33:14.714Z,99087.00
2023-03-14T14:35:45.203Z,99082.66
2023-03-14T14:41:55.044Z,99110.28
2023-03-14T14:44:38.640Z,99086.94
2023-03-14T14:47:26.579Z,99117.97
2023-03-14T14:50:33.138Z,99121.34
2023-03-14T14:53:43.315Z,99123.13
2023-03-14T14:56:41.381Z,99147.44
2023-03-14T14:59:55.821Z,99149.16
2023-03-14T15:02:45.134Z,99138.81
2023-03-14T15:09:21.904Z,99190.47
2023-03-14T15:12:01.629Z,99186.84
2023-03-14T15:15:30.509Z,99187.94
2023-03-14T15:18:01.951Z,99193.03
2023-03-14T15:20:50.128Z,99193.13
2023-03-14T15:27:54.730Z,99216.41
2023-03-14T15:30:36.514Z,99230.81
2023-03-14T15:33:14.700Z,99236.50
2023-03-14T15:38:46.965Z,99246.28
2023-03-14T15:44:49.633Z,99259.25
2023-03-14T15:47:40.549Z,99264.53
2023-03-14T15:51:05.162Z,99272.94
2023-03-14T15:54:30.259Z,99264.03
2023-03-14T15:57:47.784Z,99287.19
2023-03-14T16:03:15.010Z,99295.44
2023-03-14T16:09:52.009Z,99319.84
2023-03-14T16:17:20.324Z,99339.44
2023-03-14T16:20:00.970Z,99341.47
2023-03-14T16:23:22.744Z,99365.56
2023-03-14T16:25:52.954Z,99374.28
2023-03-14T16:28:32.460Z,99383.47
2023-03-14T16:31:31.837Z,99395.75
2023-03-14T16:34:36.654Z,99406.25
2023-03-14T16:37:17.378Z,99408.56
2023-03-14T16:40:12.472Z,99415.84
2023-03-14T16:43:17.440Z,99422.50
2023-03-14T16:45:55.594Z,99435.09
2023-03-14T16:48:27.305Z,99434.84
2023-03-14T16:51:06.328Z,99444.94
2023-03-14T16:53:46.562Z,99456.88
2023-03-14T16:56:42.289Z,99459.19
2023-03-14T16:59:33.228Z,99464.28
2023-03-14T17:02:06.556Z,99476.38
2023-03-14T17:04:40.188Z,99488.06
2023-03-14T17:07:14.653Z,99491.66
2023-03-14T17:09:44.352Z,99499.94
2023-03-14T17:12:20.717Z,99507.25
2023-03-14T17:14:53.076Z,99507.88
2023-03-14T17:17:30.464Z,99514.72
2023-03-14T17:20:02.943Z,99526.72
2023-03-14T17:23:15.990Z,99531.56
2023-03-14T17:25:53.810Z,99551.22
2023-03-14T17:28:30.048Z,99551.78
2023-03-14T17:31:11.767Z,99561.75
2023-03-14T17:33:44.126Z,99572.13
2023-03-14T17:36:19.473Z,99578.75
2023-03-14T17:38:51.859Z,99588.47
2023-03-14T17:41:24.264Z,99595.75
2023-03-14T17:44:47.538Z,99602.88
2023-03-14T17:47:19.331Z,99610.16
2023-03-14T17:50:11.578Z,99614.66
2023-03-14T17:52:40.835Z,99610.06
2023-03-14T17:55:12.269Z,99619.91
2023-03-14T17:57:46.287Z,99626.50
2023-03-14T18:00:24.061Z,99634.28
2023-03-14T18:03:00.321Z,99643.31
2023-03-14T18:05:38.695Z,99646.63
2023-03-14T18:08:15.594Z,99648.47
2023-03-14T18:10:55.238Z,99654.53
2023-03-14T18:16:21.952Z,99668.34
2023-03-14T18:19:12.175Z,99663.41
2023-03-14T18:21:42.418Z,99684.31
2023-03-14T18:24:19.741Z,99682.63
2023-03-14T18:26:50.136Z,99692.22
2023-03-14T18:29:46.597Z,99680.00
2023-03-14T18:32:23.143Z,99688.53
2023-03-14T18:34:53.082Z,99699.28
2023-03-14T18:37:24.065Z,99703.72
2023-03-14T18:39:55.582Z,99702.50
2023-03-14T18:42:27.096Z,99709.09
2023-03-14T18:44:59.494Z,99719.84
2023-03-14T18:47:37.315Z,99719.94
2023-03-14T18:50:10.960Z,99720.03
2023-03-14T18:52:53.322Z,99729.56
2023-03-14T18:55:45.112Z,99736.13
2023-03-14T18:58:16.223Z,99731.00
2023-03-14T19:00:45.545Z,99738.81
2023-03-14T19:03:15.396Z,99743.88
2023-03-14T19:05:47.432Z,99754.81
2023-03-14T19:08:23.429Z,99749.88
2023-03-14T19:10:54.809Z,99754.00
2023-03-14T19:13:27.632Z,99763.16
2023-03-14T19:15:57.688Z,99762.97
2023-03-14T19:18:27.895Z,99774.56
2023-03-14T19:21:25.456Z,99775.47
2023-03-14T19:23:55.514Z,99784.84
2023-03-14T19:26:25.081Z,99783.13
2023-03-14T19:28:58.493Z,99786.63
2023-03-14T19:31:28.765Z,99789.88
2023-03-14T19:34:02.094Z,99793.75
2023-03-14T19:36:35.327Z,99798.91
2023-03-14T19:39:06.303Z,99812.94
2023-03-14T19:41:35.331Z,99814.66
2023-03-14T19:44:08.155Z,99810.72
2023-03-14T19:46:36.488Z,99812.00
2023-03-14T19:49:09.361Z,99815.75
2023-03-14T19:51:37.919Z,99813.41
2023-03-14T19:54:27.311Z,99830.31
2023-03-14T19:56:58.577Z,99832.31
2023-03-14T19:59:46.135Z,99831.69
2023-03-14T20:02:17.384Z,99833.34
2023-03-14T20:05:01.133Z,99839.47
2023-03-14T20:07:41.237Z,99844.88
2023-03-14T20:10:33.848Z,99845.78
2023-03-14T20:13:20.697Z,99845.53
2023-03-14T20:15:53.131Z,99854.84
2023-03-14T20:18:40.181Z,99860.25
2023-03-14T20:21:19.462Z,99864.75
2023-03-14T20:24:14.305Z,99869.06
2023-03-14T20:26:45.540Z,99882.75
2023-03-14T20:32:15.004Z,99894.13
2023-03-14T20:34:45.474Z,99895.03
2023-03-14T20:37:15.364Z,99901.91
2023-03-14T20:42:30.953Z,99899.13
2023-03-14T20:45:13.867Z,99901.91
2023-03-14T20:48:04.135Z,99899.38
2023-03-14T20:50:33.947Z,99898.50
2023-03-14T20:53:11.216Z,99893.97
2023-03-14T20:55:50.159Z,99903.50
2023-03-14T20:58:25.714Z,99896.13
2023-03-14T21:01:07.403Z,99918.31
2023-03-14T21:03:46.131Z,99913.81
2023-03-14T21:06:33.202Z,99903.44
2023-03-14T21:09:14.849Z,99898.91
2023-03-14T21:12:05.935Z,99906.66
2023-03-14T21:14:54.293Z,99907.41
2023-03-14T21:18:00.212Z,99901.94
2023-03-14T21:20:48.653Z,99918.72
2023-03-14T21:23:27.517Z,99912.81
2023-03-14T21:26:19.793Z,99915.16
2023-03-14T21:28:54.580Z,99913.94
2023-03-14T21:31:28.331Z,99908.16
2023-03-14T21:33:57.858Z,99919.31
2023-03-14T21:36:29.363Z,99915.97
2023-03-14T21:39:09.214Z,99923.84
2023-03-14T21:41:41.717Z,99914.63
2023-03-14T21:44:24.096Z,99917.03
2023-03-14T21:47:00.039Z,99927.94
2023-03-14T21:49:38.590Z,99935.59
2023-03-14T21:52:20.880Z,99938.06
2023-03-14T21:54:52.433Z,99942.19
2023-03-14T21:57:35.733Z,99940.34
2023-03-14T22:00:20.387Z,99936.41
2023-03-14T22:03:13.275Z,99932.69
2023-03-14T22:05:57.476Z,99934.72
2023-03-14T22:08:32.397Z,99942.19
2023-03-14T22:11:08.782Z,99938.66
2023-03-14T22:14:18.891Z,99936.66
2023-03-14T22:16:53.598Z,99942.00
2023-03-14T22:19:24.268Z,99949.38
2023-03-14T22:22:01.032Z,99954.66
2023-03-14T22:24:37.414Z,99949.94
2023-03-14T22:27:13.176Z,99949.63
2023-03-14T22:30:03.563Z,99952.84
2023-03-14T22:32:33.731Z,99951.81
2023-03-14T22:35:06.163Z,99944.78
2023-03-14T22:37:57.283Z,99938.47
2023-03-14T22:40:49.307Z,99953.41
2023-03-14T22:43:29.199Z,99966.44
2023-03-14T22:46:13.281Z,99964.75
2023-03-14T22:48:52.039Z,99963.66
2023-03-14T22:51:44.916Z,99959.88
2023-03-14T22:54:59.249Z,99970.13
2023-03-14T22:57:31.216Z,99966.97
2023-03-14T22:59:59.378Z,99966.31
2023-03-14T23:02:28.702Z,99973.19
2023-03-14T23:04:56.516Z,99972.31
2023-03-14T23:07:24.381Z,99968.06
2023-03-14T23:09:53.285Z,99967.94
2023-03-14T23:12:22.259Z,99969.09
2023-03-14T23:14:50.154Z,99964.84
2023-03-14T23:17:18.006Z,99969.28
2023-03-14T23:19:47.379Z,99979.44
2023-03-14T23:22:15.335Z,99971.84
2023-03-14T23:24:48.448Z,99979.44
2023-03-14T23:27:17.680Z,99979.44
2023-03-14T23:29:46.182Z,99978.09
2023-03-14T23:32:15.601Z,99978.25
2023-03-14T23:34:44.618Z,99969.91
2023-03-14T23:37:14.249Z,99973.34
2023-03-14T23:39:45.737Z,99972.59
2023-03-14T23:42:14.132Z,99970.88
2023-03-14T23:44:41.902Z,99968.63
2023-03-14T23:47:10.036Z,99968.97
2023-03-14T23:49:38.022Z,99967.75
2023-03-14T23:52:05.839Z,99972.88
2023-03-14T23:54:35.664Z,99977.50
2023-03-14T23:57:05.395Z,99989.06
2023-03-14T23:59:34.112Z,99992.44
